Time;durP1;ratioP1;P1;durP2;ratioP2;P2;SDS_P1;SDS_P2;PMS_P1;PMS_P2;Temp;Humidity;BMP_temperature;BMP_pressure;BME280_temperature;BME280_humidity;BME280_pressure;Samples;Min_cycle;Max_cycle;Signal;HPM_P1;HPM_P2
2021/12/18 00:01:50;;;;;;;52.42;37.20;;;;;;;;;;5013791;28;20262;-94
2021/12/18 00:04:18;;;;;;;40.17;35.22;;;;;;;;;;5014114;28;20197;-95
2021/12/18 00:06:45;;;;;;;47.60;38.30;;;;;;;;;;5014087;28;20243;-94
2021/12/18 00:09:14;;;;;;;54.90;36.85;;;;;;;;;;5015100;28;20224;-94
2021/12/18 00:11:41;;;;;;;50.90;37.70;;;;;;;;;;5013980;28;20193;-94
2021/12/18 00:14:09;;;;;;;48.78;38.35;;;;;;;;;;5014780;28;20529;-95
2021/12/18 00:16:36;;;;;;;45.83;39.30;;;;;;;;;;5014876;28;20697;-94
2021/12/18 00:19:04;;;;;;;56.88;41.67;;;;;;;;;;5014888;28;20208;-95
2021/12/18 00:21:36;;;;;;;51.47;40.58;;;;;;;;;;5013458;28;20200;-94
2021/12/18 00:24:03;;;;;;;60.53;38.90;;;;;;;;;;5014655;28;20190;-95
2021/12/18 00:26:32;;;;;;;54.85;40.28;;;;;;;;;;4996972;28;20426;-94
2021/12/18 00:29:00;;;;;;;55.35;40.00;;;;;;;;;;5014915;28;20605;-95
2021/12/18 00:31:27;;;;;;;48.25;38.60;;;;;;;;;;5014679;28;20204;-95
2021/12/18 00:33:55;;;;;;;47.50;39.20;;;;;;;;;;5014303;28;20217;-94
2021/12/18 00:36:23;;;;;;;45.63;36.10;;;;;;;;;;5014417;28;20198;-95
2021/12/18 00:38:50;;;;;;;41.35;36.97;;;;;;;;;;5014366;28;20188;-95
2021/12/18 00:41:35;;;;;;;45.53;37.58;;;;;;;;;;5014123;28;20213;-94
2021/12/18 00:44:04;;;;;;;49.13;37.65;;;;;;;;;;5014467;28;20250;-95
2021/12/18 00:46:33;;;;;;;46.72;38.08;;;;;;;;;;5014507;28;20543;-94
2021/12/18 00:49:00;;;;;;;52.50;38.35;;;;;;;;;;5013901;28;20722;-95
2021/12/18 00:51:28;;;;;;;57.57;37.13;;;;;;;;;;5014220;28;20274;-94
2021/12/18 00:53:55;;;;;;;75.10;39.28;;;;;;;;;;5014307;28;20462;-95
2021/12/18 00:56:23;;;;;;;67.30;38.13;;;;;;;;;;5014428;28;20241;-95
2021/12/18 00:58:52;;;;;;;52.07;36.93;;;;;;;;;;5013692;28;20220;-95
2021/12/18 01:01:21;;;;;;;66.80;37.40;;;;;;;;;;4996742;28;20505;-95
2021/12/18 01:03:49;;;;;;;48.90;36.53;;;;;;;;;;5014083;28;20204;-95
2021/12/18 01:06:17;;;;;;;57.63;38.30;;;;;;;;;;5014139;28;20191;-94
2021/12/18 01:08:44;;;;;;;49.85;37.80;;;;;;;;;;5013920;28;20188;-94
2021/12/18 01:11:31;;;;;;;75.70;41.97;;;;;;;;;;5013845;28;20197;-95
2021/12/18 01:14:15;;;;;;;47.95;38.20;;;;;;;;;;5013557;28;20255;-95
2021/12/18 01:16:53;;;;;;;69.82;38.28;;;;;;;;;;5014193;28;20549;-95
2021/12/18 01:24:50;;;;;;;46.33;36.35;;;;;;;;;;5013545;28;20578;-95
2021/12/18 01:27:18;;;;;;;47.27;35.90;;;;;;;;;;5013729;28;20256;-94
2021/12/18 01:29:45;;;;;;;46.08;35.85;;;;;;;;;;5012952;28;20475;-94
2021/12/18 01:32:14;;;;;;;61.60;38.22;;;;;;;;;;5013405;28;20705;-95
2021/12/18 01:34:41;;;;;;;55.20;38.40;;;;;;;;;;5012179;28;20235;-94
2021/12/18 01:37:09;;;;;;;58.33;38.83;;;;;;;;;;5013703;28;20200;-94
2021/12/18 01:39:36;;;;;;;61.08;37.67;;;;;;;;;;4996371;28;20211;-95
2021/12/18 01:42:30;;;;;;;41.28;35.60;;;;;;;;;;5013398;28;20558;-95
2021/12/18 01:45:05;;;;;;;59.33;36.87;;;;;;;;;;5013313;28;20672;-95
2021/12/18 01:53:07;;;;;;;67.38;38.72;;;;;;;;;;5013367;28;20245;-95
2021/12/18 01:55:35;;;;;;;71.40;39.22;;;;;;;;;;5013592;28;20228;-95
2021/12/18 01:58:02;;;;;;;48.55;37.75;;;;;;;;;;5013526;28;20268;-96
2021/12/18 02:00:31;;;;;;;50.10;36.75;;;;;;;;;;5013751;28;20526;-95
2021/12/18 02:03:00;;;;;;;52.58;36.83;;;;;;;;;;5013328;28;20209;-95
2021/12/18 02:05:27;;;;;;;59.13;37.40;;;;;;;;;;5013545;28;20628;-95
2021/12/18 02:07:55;;;;;;;52.57;38.13;;;;;;;;;;5013503;28;20574;-94
2021/12/18 02:10:25;;;;;;;55.80;36.33;;;;;;;;;;5013261;28;20436;-95
2021/12/18 02:12:59;;;;;;;52.25;38.15;;;;;;;;;;5016598;28;20200;-95
2021/12/18 02:21:06;;;;;;;57.65;39.67;;;;;;;;;;5017134;28;20399;-94
2021/12/18 02:23:33;;;;;;;59.90;39.78;;;;;;;;;;5016975;28;20683;-95
2021/12/18 02:26:01;;;;;;;42.65;36.25;;;;;;;;;;5017092;28;20189;-95
2021/12/18 02:28:28;;;;;;;55.72;39.42;;;;;;;;;;5016799;28;20192;-95
2021/12/18 02:30:56;;;;;;;51.55;39.20;;;;;;;;;;5017135;28;20195;-94
2021/12/18 02:33:24;;;;;;;98.55;41.30;;;;;;;;;;5015511;28;20229;-95
2021/12/18 02:35:54;;;;;;;53.30;35.30;;;;;;;;;;5016723;28;20208;-95
2021/12/18 02:38:30;;;;;;;50.05;36.05;;;;;;;;;;5016350;28;20677;-95
2021/12/18 02:41:14;;;;;;;41.97;34.63;;;;;;;;;;5016710;28;20236;-95
2021/12/18 02:43:43;;;;;;;45.22;36.53;;;;;;;;;;4998896;28;20197;-94
2021/12/18 02:46:17;;;;;;;38.50;34.05;;;;;;;;;;5016588;28;20205;-95
2021/12/18 02:48:44;;;;;;;37.97;33.47;;;;;;;;;;5016142;28;20247;-95
2021/12/18 02:51:12;;;;;;;37.07;33.07;;;;;;;;;;5016375;28;20192;-95
2021/12/18 02:53:43;;;;;;;37.58;33.65;;;;;;;;;;4998574;28;20495;-95
2021/12/18 02:56:12;;;;;;;46.70;37.67;;;;;;;;;;5012044;28;20203;-96
2021/12/18 02:58:40;;;;;;;40.50;34.50;;;;;;;;;;5016137;28;20205;-95
2021/12/18 03:01:09;;;;;;;43.23;33.00;;;;;;;;;;5016094;28;20204;-95
2021/12/18 03:03:39;;;;;;;39.80;34.63;;;;;;;;;;5016172;28;20423;-94
2021/12/18 03:06:19;;;;;;;58.45;36.88;;;;;;;;;;4999591;28;20287;-95
2021/12/18 03:08:55;;;;;;;43.03;33.30;;;;;;;;;;5016224;28;20208;-94
2021/12/18 03:25:05;;;;;;;63.53;36.80;;;;;;;;;;5015559;28;20437;-94
2021/12/18 03:27:33;;;;;;;49.50;35.53;;;;;;;;;;5015932;28;20193;-95
2021/12/18 03:30:00;;;;;;;37.05;32.08;;;;;;;;;;5015615;28;20186;-94
2021/12/18 03:32:27;;;;;;;42.88;33.65;;;;;;;;;;5015746;28;20562;-94
2021/12/18 03:34:55;;;;;;;39.70;35.15;;;;;;;;;;5015275;28;20229;-93
2021/12/18 03:37:22;;;;;;;40.50;33.50;;;;;;;;;;4998617;28;20189;-94
2021/12/18 03:39:50;;;;;;;45.40;34.42;;;;;;;;;;5014308;28;20604;-94
2021/12/18 03:42:19;;;;;;;43.67;35.08;;;;;;;;;;5015381;28;20185;-94
2021/12/18 03:44:47;;;;;;;36.20;32.53;;;;;;;;;;5015207;28;20216;-94
2021/12/18 03:47:15;;;;;;;38.90;33.53;;;;;;;;;;5015622;28;20190;-94
2021/12/18 03:49:42;;;;;;;34.60;31.15;;;;;;;;;;5015042;28;20239;-94
2021/12/18 03:52:09;;;;;;;42.70;35.77;;;;;;;;;;5015549;28;20212;-94
2021/12/18 03:54:37;;;;;;;34.50;31.05;;;;;;;;;;5015048;28;20480;-95
2021/12/18 03:57:04;;;;;;;35.67;31.88;;;;;;;;;;5015191;28;20189;-95
2021/12/18 03:59:33;;;;;;;36.70;32.87;;;;;;;;;;5015400;28;20205;-95
2021/12/18 04:02:01;;;;;;;35.90;32.22;;;;;;;;;;5015391;28;20411;-94
2021/12/18 04:04:28;;;;;;;34.60;31.05;;;;;;;;;;5014935;28;20202;-96
2021/12/18 04:06:56;;;;;;;37.60;31.40;;;;;;;;;;5015251;28;20189;-95
2021/12/18 04:09:24;;;;;;;35.00;31.37;;;;;;;;;;5013895;28;20419;-95
2021/12/18 04:11:51;;;;;;;36.42;30.67;;;;;;;;;;5014774;28;20434;-95
2021/12/18 04:14:19;;;;;;;37.65;31.83;;;;;;;;;;5014910;28;20614;-95
2021/12/18 04:16:47;;;;;;;33.63;30.23;;;;;;;;;;5015043;28;20215;-95
2021/12/18 04:19:15;;;;;;;33.33;29.98;;;;;;;;;;5015092;28;20189;-95
2021/12/18 04:21:42;;;;;;;34.20;30.70;;;;;;;;;;5013538;28;20262;-95
2021/12/18 04:24:10;;;;;;;34.47;31.10;;;;;;;;;;5014769;28;20250;-95
2021/12/18 04:26:37;;;;;;;33.70;30.23;;;;;;;;;;5014678;28;20507;-95
2021/12/18 04:29:06;;;;;;;31.63;28.43;;;;;;;;;;5014855;28;20423;-93
2021/12/18 04:31:34;;;;;;;30.25;27.50;;;;;;;;;;5014609;28;20465;-95
2021/12/18 04:34:03;;;;;;;29.20;26.37;;;;;;;;;;5014161;28;20275;-95
2021/12/18 04:36:30;;;;;;;34.73;28.90;;;;;;;;;;5014654;28;20427;-96
2021/12/18 04:38:58;;;;;;;29.20;26.50;;;;;;;;;;5014271;28;20434;-94
2021/12/18 04:41:37;;;;;;;29.07;26.47;;;;;;;;;;5013207;28;20451;-95
2021/12/18 04:44:05;;;;;;;27.00;24.58;;;;;;;;;;5014228;28;20438;-95
2021/12/18 04:46:32;;;;;;;25.33;23.27;;;;;;;;;;5014315;28;20295;-95
2021/12/18 04:49:00;;;;;;;24.67;22.70;;;;;;;;;;5013958;28;20262;-94
2021/12/18 04:51:29;;;;;;;23.35;21.73;;;;;;;;;;5014406;28;20507;-95
2021/12/18 04:53:56;;;;;;;22.33;20.77;;;;;;;;;;5014282;28;20297;-95
2021/12/18 04:56:23;;;;;;;22.57;21.07;;;;;;;;;;5014245;28;20557;-95
2021/12/18 04:58:51;;;;;;;21.55;20.00;;;;;;;;;;5014364;28;20464;-95
2021/12/18 05:01:18;;;;;;;21.95;20.65;;;;;;;;;;5013014;28;20209;-95
2021/12/18 05:03:47;;;;;;;21.35;19.90;;;;;;;;;;5014155;28;20197;-95
2021/12/18 05:06:14;;;;;;;22.38;20.77;;;;;;;;;;5013968;28;20209;-95
2021/12/18 05:08:43;;;;;;;21.43;20.13;;;;;;;;;;5014347;28;20212;-95
2021/12/18 05:11:11;;;;;;;21.67;20.17;;;;;;;;;;5014008;28;20499;-95
2021/12/18 05:13:38;;;;;;;20.60;19.35;;;;;;;;;;5013954;28;20191;-94
2021/12/18 05:16:05;;;;;;;20.20;19.10;;;;;;;;;;5013971;28;20610;-94
2021/12/18 05:18:33;;;;;;;20.30;18.90;;;;;;;;;;5014053;28;20417;-94
2021/12/18 05:21:00;;;;;;;22.00;20.33;;;;;;;;;;5014204;28;20545;-95
2021/12/18 05:23:27;;;;;;;21.08;19.77;;;;;;;;;;5013962;28;20568;-94
2021/12/18 05:25:56;;;;;;;20.75;19.45;;;;;;;;;;5013966;28;20192;-94
2021/12/18 05:28:24;;;;;;;21.02;19.70;;;;;;;;;;5013728;28;20248;-94
2021/12/18 05:30:51;;;;;;;20.20;19.00;;;;;;;;;;5012515;28;20259;-95
2021/12/18 05:33:19;;;;;;;19.70;18.50;;;;;;;;;;5013532;28;20429;-95
2021/12/18 05:35:46;;;;;;;19.80;18.60;;;;;;;;;;4996572;28;20491;-94
2021/12/18 05:38:14;;;;;;;19.57;18.40;;;;;;;;;;5012463;28;20625;-95
2021/12/18 05:40:41;;;;;;;19.70;18.60;;;;;;;;;;5013596;28;20463;-95
2021/12/18 05:43:11;;;;;;;20.90;19.50;;;;;;;;;;5013813;28;20874;-95
2021/12/18 05:45:39;;;;;;;21.48;20.17;;;;;;;;;;5013978;28;20835;-95
2021/12/18 05:48:06;;;;;;;20.30;19.13;;;;;;;;;;5017455;28;20239;-95
2021/12/18 05:50:34;;;;;;;21.47;20.13;;;;;;;;;;5017771;28;20534;-93
2021/12/18 05:53:02;;;;;;;21.60;20.08;;;;;;;;;;5017285;28;20414;-95
2021/12/18 05:55:30;;;;;;;22.65;21.05;;;;;;;;;;5000352;28;20232;-95
2021/12/18 05:57:57;;;;;;;21.87;20.57;;;;;;;;;;5017460;28;20242;-94
2021/12/18 06:00:26;;;;;;;21.83;20.33;;;;;;;;;;5016262;28;20891;-95
2021/12/18 06:02:53;;;;;;;22.80;21.10;;;;;;;;;;5016988;28;20612;-95
2021/12/18 06:05:21;;;;;;;23.27;21.37;;;;;;;;;;5016473;28;20443;-95
2021/12/18 06:07:56;;;;;;;21.73;20.13;;;;;;;;;;5016095;28;21004;-94
2021/12/18 06:10:24;;;;;;;22.40;20.80;;;;;;;;;;5017465;28;20463;-95
2021/12/18 06:12:52;;;;;;;21.30;20.00;;;;;;;;;;5015988;28;20501;-94
2021/12/18 06:15:19;;;;;;;22.67;21.08;;;;;;;;;;5017034;28;20591;-95
2021/12/18 06:17:48;;;;;;;21.17;19.95;;;;;;;;;;5017007;28;20258;-95
2021/12/18 06:20:16;;;;;;;21.58;20.25;;;;;;;;;;5017005;28;20210;-95
2021/12/18 06:22:43;;;;;;;20.80;19.50;;;;;;;;;;5016778;28;20266;-95
2021/12/18 06:25:10;;;;;;;22.43;20.83;;;;;;;;;;5016972;28;20430;-94
2021/12/18 06:27:38;;;;;;;21.10;19.90;;;;;;;;;;5017340;28;20424;-95
2021/12/18 06:30:06;;;;;;;21.03;19.73;;;;;;;;;;5017012;28;20470;-95
2021/12/18 06:32:33;;;;;;;22.40;20.73;;;;;;;;;;5015743;28;20430;-94
2021/12/18 06:35:02;;;;;;;20.83;19.43;;;;;;;;;;5016931;28;20479;-94
2021/12/18 06:37:29;;;;;;;22.33;20.87;;;;;;;;;;5016478;28;20454;-94
2021/12/18 06:39:57;;;;;;;22.00;20.47;;;;;;;;;;5016629;28;20448;-95
2021/12/18 06:42:24;;;;;;;22.27;20.70;;;;;;;;;;5015262;28;20469;-95
2021/12/18 06:44:52;;;;;;;22.40;20.77;;;;;;;;;;5016590;28;20448;-94
2021/12/18 06:47:19;;;;;;;21.98;20.58;;;;;;;;;;5016514;28;20407;-93
2021/12/18 06:49:46;;;;;;;20.37;19.30;;;;;;;;;;4995728;28;20233;-94
2021/12/18 06:52:15;;;;;;;20.27;19.17;;;;;;;;;;4997108;28;20494;-95
2021/12/18 06:54:43;;;;;;;21.63;20.02;;;;;;;;;;4996994;28;20500;-95
2021/12/18 06:57:10;;;;;;;20.70;19.30;;;;;;;;;;4996369;28;20194;-93
2021/12/18 06:59:38;;;;;;;21.70;20.30;;;;;;;;;;4996699;28;20946;-94
2021/12/18 07:02:05;;;;;;;20.10;18.90;;;;;;;;;;4996643;28;20209;-94
2021/12/18 07:04:32;;;;;;;21.05;19.85;;;;;;;;;;4996664;28;20252;-94
2021/12/18 07:07:00;;;;;;;21.83;20.10;;;;;;;;;;5011534;28;20620;-95
2021/12/18 07:09:29;;;;;;;19.77;18.67;;;;;;;;;;4995299;28;20437;-95
2021/12/18 07:11:56;;;;;;;21.37;20.10;;;;;;;;;;4996666;28;20202;-94
2021/12/18 07:14:23;;;;;;;21.65;20.35;;;;;;;;;;4996612;28;20431;-94
2021/12/18 07:16:50;;;;;;;20.70;19.40;;;;;;;;;;4996190;28;20786;-94
2021/12/18 07:19:18;;;;;;;21.67;20.38;;;;;;;;;;4996706;28;20201;-94
2021/12/18 07:21:45;;;;;;;21.40;20.17;;;;;;;;;;4996062;28;20192;-94
2021/12/18 07:24:13;;;;;;;21.25;20.00;;;;;;;;;;5011274;28;20431;-88
2021/12/18 07:26:42;;;;;;;22.50;21.00;;;;;;;;;;4996004;28;20194;-88
2021/12/18 07:29:09;;;;;;;24.83;23.13;;;;;;;;;;5010969;28;20450;-88
2021/12/18 07:31:37;;;;;;;23.50;22.00;;;;;;;;;;4995945;28;20218;-88
2021/12/18 07:34:04;;;;;;;22.88;21.50;;;;;;;;;;4995891;28;20422;-88
2021/12/18 07:36:32;;;;;;;21.65;20.20;;;;;;;;;;4995914;28;20221;-88
2021/12/18 07:38:59;;;;;;;20.45;19.25;;;;;;;;;;4995882;28;20196;-88
2021/12/18 07:41:27;;;;;;;22.03;20.43;;;;;;;;;;4995373;28;20196;-88
2021/12/18 07:43:55;;;;;;;22.10;20.67;;;;;;;;;;4995344;28;20446;-88
2021/12/18 07:46:23;;;;;;;23.02;21.30;;;;;;;;;;4995639;28;20515;-89
2021/12/18 07:48:50;;;;;;;22.43;20.93;;;;;;;;;;5006489;28;20248;-87
2021/12/18 07:51:18;;;;;;;22.30;20.85;;;;;;;;;;5015582;28;20463;-87
2021/12/18 07:53:45;;;;;;;21.50;20.05;;;;;;;;;;5014802;28;20216;-88
2021/12/18 07:56:13;;;;;;;21.80;20.40;;;;;;;;;;5014902;28;20221;-88
2021/12/18 07:58:40;;;;;;;21.67;20.38;;;;;;;;;;5014904;28;20428;-88
2021/12/18 08:01:09;;;;;;;20.53;19.33;;;;;;;;;;5015185;28;20283;-87
2021/12/18 08:03:36;;;;;;;20.60;19.42;;;;;;;;;;5015021;28;20415;-86
2021/12/18 08:06:03;;;;;;;20.80;19.45;;;;;;;;;;5014898;28;20205;-87
2021/12/18 08:08:31;;;;;;;21.52;20.23;;;;;;;;;;5014106;28;20205;-88
2021/12/18 08:10:58;;;;;;;19.77;18.65;;;;;;;;;;5014896;28;20639;-88
2021/12/18 08:13:26;;;;;;;20.23;19.05;;;;;;;;;;5014621;28;20194;-88
2021/12/18 08:15:53;;;;;;;19.98;18.80;;;;;;;;;;5014169;28;20220;-88
2021/12/18 08:18:22;;;;;;;20.73;19.42;;;;;;;;;;5014967;28;20199;-88
2021/12/18 08:20:49;;;;;;;20.50;19.10;;;;;;;;;;5014881;28;20533;-87
2021/12/18 08:23:17;;;;;;;20.37;19.20;;;;;;;;;;5014503;28;20245;-88
2021/12/18 08:25:45;;;;;;;21.47;20.07;;;;;;;;;;5015182;28;20460;-88
2021/12/18 08:28:12;;;;;;;21.50;20.03;;;;;;;;;;5014808;28;20415;-87
2021/12/18 08:30:40;;;;;;;21.15;19.80;;;;;;;;;;5014012;28;20446;-87
2021/12/18 08:33:08;;;;;;;21.40;20.20;;;;;;;;;;5014146;28;20635;-85
2021/12/18 08:35:37;;;;;;;20.83;19.73;;;;;;;;;;5014412;28;20484;-87
2021/12/18 08:38:05;;;;;;;21.13;19.92;;;;;;;;;;5014245;28;20201;-86
2021/12/18 08:40:33;;;;;;;21.50;20.00;;;;;;;;;;4997323;28;20281;-87
2021/12/18 08:43:00;;;;;;;19.63;18.52;;;;;;;;;;5014050;28;20233;-86
2021/12/18 08:45:28;;;;;;;20.48;19.30;;;;;;;;;;5014016;28;20590;-86
2021/12/18 08:47:55;;;;;;;21.20;19.70;;;;;;;;;;5013844;28;20229;-86
2021/12/18 08:50:23;;;;;;;20.80;19.60;;;;;;;;;;5013847;28;20626;-87
2021/12/18 08:52:53;;;;;;;20.13;18.93;;;;;;;;;;5014035;28;20203;-87
2021/12/18 08:55:21;;;;;;;19.88;18.80;;;;;;;;;;5014590;28;20500;-86
2021/12/18 08:57:49;;;;;;;19.38;18.30;;;;;;;;;;5015455;28;20185;-87
2021/12/18 09:00:18;;;;;;;20.23;19.13;;;;;;;;;;5016074;28;20192;-87
2021/12/18 09:02:47;;;;;;;20.00;18.90;;;;;;;;;;5019392;28;20190;-86
2021/12/18 09:05:14;;;;;;;19.98;18.92;;;;;;;;;;5014254;28;20244;-86
2021/12/18 09:07:41;;;;;;;19.90;18.88;;;;;;;;;;5013759;28;20196;-86
2021/12/18 09:10:11;;;;;;;19.38;18.35;;;;;;;;;;5014491;28;20198;-86
2021/12/18 09:12:38;;;;;;;19.58;18.63;;;;;;;;;;5013787;28;20644;-86
2021/12/18 09:15:06;;;;;;;18.92;17.92;;;;;;;;;;5013637;28;20194;-86
2021/12/18 09:17:33;;;;;;;19.92;18.88;;;;;;;;;;5014162;28;20623;-86
2021/12/18 09:20:01;;;;;;;19.35;18.25;;;;;;;;;;5013688;28;20196;-86
2021/12/18 09:22:28;;;;;;;19.57;18.57;;;;;;;;;;5012582;28;20228;-86
2021/12/18 09:24:56;;;;;;;21.13;20.02;;;;;;;;;;5015444;28;20428;-85
2021/12/18 09:27:25;;;;;;;19.08;18.08;;;;;;;;;;5013577;28;20189;-86
2021/12/18 09:29:52;;;;;;;19.80;18.70;;;;;;;;;;5013650;28;20205;-86
2021/12/18 09:32:19;;;;;;;20.05;18.90;;;;;;;;;;5013657;28;20624;-86
2021/12/18 09:34:47;;;;;;;20.90;19.60;;;;;;;;;;5012391;28;20208;-87
2021/12/18 09:37:15;;;;;;;20.10;19.00;;;;;;;;;;5013230;28;20464;-87
2021/12/18 09:39:42;;;;;;;19.85;18.75;;;;;;;;;;5013385;28;20208;-87
2021/12/18 09:42:10;;;;;;;21.23;19.75;;;;;;;;;;5013807;28;20777;-87
2021/12/18 09:44:38;;;;;;;20.07;18.97;;;;;;;;;;5014705;28;20192;-91
2021/12/18 09:47:06;;;;;;;21.10;19.92;;;;;;;;;;5012200;28;20505;-87
2021/12/18 09:49:34;;;;;;;19.13;18.02;;;;;;;;;;5013224;28;20241;-87
2021/12/18 09:52:02;;;;;;;18.87;17.87;;;;;;;;;;5013600;28;20607;-87
2021/12/18 09:54:29;;;;;;;19.13;18.02;;;;;;;;;;5012668;28;20816;-85
2021/12/18 09:56:57;;;;;;;19.63;18.43;;;;;;;;;;5012992;28;20227;-85
2021/12/18 09:59:24;;;;;;;19.10;18.00;;;;;;;;;;5013393;28;20467;-87
2021/12/18 10:01:53;;;;;;;18.90;17.80;;;;;;;;;;5013400;28;20219;-88
2021/12/18 10:04:31;;;;;;;19.35;18.25;;;;;;;;;;5013729;28;20197;-87
2021/12/18 10:06:59;;;;;;;18.90;17.90;;;;;;;;;;5013056;28;20199;-87
2021/12/18 10:09:37;;;;;;;20.13;18.75;;;;;;;;;;5013255;28;20441;-87
2021/12/18 10:12:06;;;;;;;20.15;19.05;;;;;;;;;;5012789;28;20763;-86
2021/12/18 10:14:35;;;;;;;19.83;18.73;;;;;;;;;;5013193;28;20533;-85
2021/12/18 10:17:05;;;;;;;24.43;22.77;;;;;;;;;;5013098;28;20545;-86
2021/12/18 10:19:33;;;;;;;20.42;19.13;;;;;;;;;;5012984;28;20419;-87
2021/12/18 10:22:02;;;;;;;26.50;24.65;;;;;;;;;;5013225;28;20204;-87
2021/12/18 10:24:30;;;;;;;23.30;21.75;;;;;;;;;;5012969;28;20204;-86
2021/12/18 10:26:57;;;;;;;22.48;21.08;;;;;;;;;;5013150;28;20224;-87
2021/12/18 10:29:27;;;;;;;21.40;20.17;;;;;;;;;;5013134;28;20201;-87
2021/12/18 10:31:55;;;;;;;20.95;19.70;;;;;;;;;;5013267;28;20870;-87
2021/12/18 10:34:24;;;;;;;24.10;22.40;;;;;;;;;;5016465;28;20643;-87
2021/12/18 10:37:12;;;;;;;21.15;19.90;;;;;;;;;;5016747;28;20633;-87
2021/12/18 10:39:40;;;;;;;19.40;18.30;;;;;;;;;;5016815;28;20190;-87
2021/12/18 10:42:18;;;;;;;19.17;18.10;;;;;;;;;;5016665;28;20223;-87
2021/12/18 10:45:03;;;;;;;19.95;18.90;;;;;;;;;;5016402;28;20273;-87
2021/12/18 10:47:43;;;;;;;19.50;18.42;;;;;;;;;;5016396;28;20535;-87
2021/12/18 10:50:18;;;;;;;19.50;18.40;;;;;;;;;;5016437;28;20193;-87
2021/12/18 10:52:46;;;;;;;19.15;18.10;;;;;;;;;;5018719;28;20564;-88
2021/12/18 10:55:13;;;;;;;19.60;18.50;;;;;;;;;;5021668;28;20247;-90
2021/12/18 10:57:47;;;;;;;19.77;18.67;;;;;;;;;;5016910;28;20980;-84
2021/12/18 11:00:21;;;;;;;19.42;18.42;;;;;;;;;;5020095;28;20918;-86
2021/12/18 11:02:49;;;;;;;19.00;18.08;;;;;;;;;;5021490;28;20220;-86
2021/12/18 11:05:18;;;;;;;20.70;19.40;;;;;;;;;;5018406;28;20573;-87
2021/12/18 11:07:48;;;;;;;21.58;20.10;;;;;;;;;;5016606;28;20711;-87
2021/12/18 11:10:39;;;;;;;21.58;20.33;;;;;;;;;;5018570;28;20188;-92
2021/12/18 11:15:51;;;;;;;20.95;19.85;;;;;;;;;;5002876;28;20484;-96
2021/12/18 11:18:19;;;;;;;24.60;23.10;;;;;;;;;;5008219;28;20194;-96
2021/12/18 11:20:50;;;;;;;20.98;19.83;;;;;;;;;;4997920;28;20558;-96
2021/12/18 11:26:35;;;;;;;20.13;18.93;;;;;;;;;;5016968;28;20184;-91
2021/12/18 11:29:04;;;;;;;22.17;20.77;;;;;;;;;;5011904;28;20436;-87
2021/12/18 11:31:36;;;;;;;21.50;20.15;;;;;;;;;;5010835;28;20194;-84
2021/12/18 11:39:44;;;;;;;22.60;21.07;;;;;;;;;;5018453;28;20432;-86
2021/12/18 11:47:49;;;;;;;34.88;31.52;;;;;;;;;;5018275;28;20182;-86
2021/12/18 11:50:24;;;;;;;41.73;36.40;;;;;;;;;;5001716;28;20209;-86
2021/12/18 11:53:09;;;;;;;44.10;36.88;;;;;;;;;;5010265;28;20456;-84
2021/12/18 11:55:38;;;;;;;21.57;20.27;;;;;;;;;;4995196;28;20282;-84
2021/12/18 11:58:11;;;;;;;34.87;30.10;;;;;;;;;;5011380;28;20451;-90
2021/12/18 12:00:43;;;;;;;24.95;23.10;;;;;;;;;;5014703;28;20427;-94
2021/12/18 12:03:10;;;;;;;52.13;36.35;;;;;;;;;;5015680;28;20665;-90
2021/12/18 12:05:41;;;;;;;22.95;20.95;;;;;;;;;;5014900;28;20278;-91
2021/12/18 12:08:23;;;;;;;39.90;28.85;;;;;;;;;;5015512;28;20197;-92
2021/12/18 12:11:15;;;;;;;49.20;36.35;;;;;;;;;;5013844;28;20318;-96
2021/12/18 12:13:55;;;;;;;25.03;23.27;;;;;;;;;;5016359;28;20197;-96
2021/12/18 12:16:37;;;;;;;25.07;23.37;;;;;;;;;;5017078;28;20805;-94
2021/12/18 12:19:05;;;;;;;22.60;21.13;;;;;;;;;;5017136;28;20423;-94
2021/12/18 12:21:39;;;;;;;24.08;22.27;;;;;;;;;;5018348;28;20281;-92
2021/12/18 12:24:07;;;;;;;23.40;21.92;;;;;;;;;;5025080;28;20221;-91
2021/12/18 12:26:34;;;;;;;24.05;22.40;;;;;;;;;;5034560;28;20204;-91
2021/12/18 12:29:04;;;;;;;23.80;21.90;;;;;;;;;;5015389;28;20194;-93
2021/12/18 12:31:32;;;;;;;24.70;22.90;;;;;;;;;;5029769;28;20196;-93
2021/12/18 12:34:14;;;;;;;26.35;24.33;;;;;;;;;;5035591;28;20418;-92
2021/12/18 12:36:45;;;;;;;24.58;22.73;;;;;;;;;;5033948;28;20286;-92
2021/12/18 12:39:14;;;;;;;23.67;21.98;;;;;;;;;;5035979;28;20220;-91
2021/12/18 12:41:43;;;;;;;23.87;22.30;;;;;;;;;;5034373;28;20199;-92
2021/12/18 12:44:37;;;;;;;25.73;23.70;;;;;;;;;;5037747;28;20763;-91
2021/12/18 12:47:19;;;;;;;23.70;22.20;;;;;;;;;;5035220;28;20919;-92
2021/12/18 12:49:48;;;;;;;23.60;22.00;;;;;;;;;;5034050;28;20239;-92
2021/12/18 12:52:16;;;;;;;22.80;21.40;;;;;;;;;;5035789;28;20694;-93
2021/12/18 12:54:54;;;;;;;23.08;21.42;;;;;;;;;;5023074;28;20188;-92
2021/12/18 12:57:38;;;;;;;22.90;21.40;;;;;;;;;;5015166;28;20213;-87
2021/12/18 13:00:24;;;;;;;23.75;22.35;;;;;;;;;;5015472;28;20444;-82
2021/12/18 13:02:55;;;;;;;25.10;23.58;;;;;;;;;;5014365;28;20199;-91
2021/12/18 13:05:23;;;;;;;22.88;21.48;;;;;;;;;;5016296;28;20201;-84
2021/12/18 13:07:52;;;;;;;23.25;21.77;;;;;;;;;;5014660;28;20196;-84
2021/12/18 13:10:19;;;;;;;23.40;21.90;;;;;;;;;;5014093;28;20197;-85
2021/12/18 13:12:53;;;;;;;21.58;20.33;;;;;;;;;;5013627;28;20421;-84
2021/12/18 13:15:20;;;;;;;21.77;20.30;;;;;;;;;;5013034;28;20192;-84
2021/12/18 13:17:48;;;;;;;23.35;21.80;;;;;;;;;;5014515;28;20219;-85
2021/12/18 13:20:17;;;;;;;23.70;22.17;;;;;;;;;;5013625;28;20192;-85
2021/12/18 13:22:53;;;;;;;24.38;22.70;;;;;;;;;;5014227;28;20504;-84
2021/12/18 13:25:21;;;;;;;23.53;21.97;;;;;;;;;;5014406;28;20543;-85
2021/12/18 13:28:03;;;;;;;25.03;23.33;;;;;;;;;;5013143;28;20853;-84
2021/12/18 13:30:31;;;;;;;23.40;22.00;;;;;;;;;;5013241;28;20510;-84
2021/12/18 13:32:59;;;;;;;22.20;21.00;;;;;;;;;;5014138;28;20448;-85
2021/12/18 13:35:30;;;;;;;22.30;20.90;;;;;;;;;;5015762;28;20202;-85
2021/12/18 13:37:58;;;;;;;22.27;20.97;;;;;;;;;;5014053;28;20488;-84
2021/12/18 13:40:26;;;;;;;22.90;21.50;;;;;;;;;;5014117;28;20527;-87
2021/12/18 13:43:04;;;;;;;22.17;20.77;;;;;;;;;;5012841;28;20322;-85
2021/12/18 13:45:31;;;;;;;20.80;19.50;;;;;;;;;;5012961;28;20249;-85
2021/12/18 13:48:03;;;;;;;21.53;20.23;;;;;;;;;;5015024;28;20487;-84
2021/12/18 13:50:32;;;;;;;22.87;21.17;;;;;;;;;;5014200;28;20900;-83
2021/12/18 13:53:03;;;;;;;22.10;20.80;;;;;;;;;;5013309;28;20584;-84
2021/12/18 13:55:32;;;;;;;22.63;21.35;;;;;;;;;;5012638;28;20185;-85
2021/12/18 13:58:01;;;;;;;23.13;21.83;;;;;;;;;;4999679;28;20229;-84
2021/12/18 14:00:29;;;;;;;23.00;21.40;;;;;;;;;;5012693;28;20248;-85
2021/12/18 14:02:56;;;;;;;22.15;20.85;;;;;;;;;;5012107;28;20201;-83
2021/12/18 14:05:24;;;;;;;21.00;19.87;;;;;;;;;;5014733;28;20591;-85
2021/12/18 14:07:53;;;;;;;22.45;21.23;;;;;;;;;;5016530;28;20434;-85
2021/12/18 14:10:21;;;;;;;23.00;21.77;;;;;;;;;;5015902;28;20211;-84
2021/12/18 14:12:49;;;;;;;22.48;21.17;;;;;;;;;;5016549;28;20444;-84
2021/12/18 14:15:19;;;;;;;22.67;21.35;;;;;;;;;;5016582;28;20196;-84
2021/12/18 14:17:47;;;;;;;25.08;23.02;;;;;;;;;;5017030;28;20218;-85
2021/12/18 14:20:15;;;;;;;22.70;21.23;;;;;;;;;;5018579;28;20188;-85
2021/12/18 14:22:43;;;;;;;22.08;20.75;;;;;;;;;;5017836;28;20795;-84
2021/12/18 14:25:13;;;;;;;22.20;20.90;;;;;;;;;;5015090;28;20201;-84
2021/12/18 14:27:42;;;;;;;22.80;21.48;;;;;;;;;;5017565;28;20452;-85
2021/12/18 14:30:19;;;;;;;23.25;21.95;;;;;;;;;;5017640;28;20190;-85
2021/12/18 14:32:47;;;;;;;23.40;21.90;;;;;;;;;;5016041;28;20201;-83
2021/12/18 14:35:15;;;;;;;23.23;21.92;;;;;;;;;;5016018;28;20643;-82
2021/12/18 14:37:50;;;;;;;23.07;21.67;;;;;;;;;;5015900;28;20366;-84
2021/12/18 14:40:20;;;;;;;22.23;20.93;;;;;;;;;;5015928;28;20414;-84
2021/12/18 14:42:58;;;;;;;23.25;21.95;;;;;;;;;;5016445;28;20442;-84
2021/12/18 14:45:27;;;;;;;21.85;20.55;;;;;;;;;;5015716;28;20188;-83
2021/12/18 14:47:56;;;;;;;23.70;22.10;;;;;;;;;;5015740;28;20590;-84
2021/12/18 14:50:25;;;;;;;24.27;22.27;;;;;;;;;;5015586;28;20754;-84
2021/12/18 14:52:58;;;;;;;23.17;21.75;;;;;;;;;;5015869;28;20669;-84
2021/12/18 14:55:27;;;;;;;23.38;21.63;;;;;;;;;;5015624;28;20194;-84
2021/12/18 14:57:56;;;;;;;23.40;21.92;;;;;;;;;;5015665;28;20217;-85
2021/12/18 15:00:24;;;;;;;24.05;22.48;;;;;;;;;;5016825;28;20517;-85
2021/12/18 15:03:00;;;;;;;22.73;21.42;;;;;;;;;;5017692;28;20636;-85
2021/12/18 15:05:28;;;;;;;23.05;21.65;;;;;;;;;;5015346;28;20239;-85
2021/12/18 15:08:02;;;;;;;24.02;22.52;;;;;;;;;;5014648;28;20671;-85
2021/12/18 15:10:44;;;;;;;23.45;21.85;;;;;;;;;;5014462;28;20632;-84
2021/12/18 15:13:17;;;;;;;23.70;22.10;;;;;;;;;;5015786;28;20601;-86
2021/12/18 15:15:44;;;;;;;24.23;22.73;;;;;;;;;;5016452;28;20526;-86
2021/12/18 15:18:12;;;;;;;23.92;22.45;;;;;;;;;;5015682;28;20216;-87